sensor_id;sensor_type;location;lat;lon;timestamp;pressure;altitude;pressure_sealevel;temperature;humidity
49342;BME280;35210;41.606;-87.602;2024-03-07T00:00:18;99779.44;;;9.54;62.51
49342;BME280;35210;41.606;-87.602;2024-03-07T00:02:48;99782.59;;;9.46;61.54
49342;BME280;35210;41.606;-87.602;2024-03-07T00:05:18;99781.00;;;9.44;63.21
49342;BME280;35210;41.606;-87.602;2024-03-07T00:07:46;99778.56;;;9.41;62.54
49342;BME280;35210;41.606;-87.602;2024-03-07T00:10:15;99777.94;;;9.50;62.84
49342;BME280;35210;41.606;-87.602;2024-03-07T00:12:45;99771.81;;;9.37;62.63
49342;BME280;35210;41.606;-87.602;2024-03-07T00:15:14;99779.91;;;9.34;64.14
49342;BME280;35210;41.606;-87.602;2024-03-07T00:17:43;99777.59;;;9.29;64.53
49342;BME280;35210;41.606;-87.602;2024-03-07T00:20:12;99775.59;;;9.33;64.55
49342;BME280;35210;41.606;-87.602;2024-03-07T00:22:42;99770.22;;;9.34;63.83
49342;BME280;35210;41.606;-87.602;2024-03-07T00:25:10;99771.25;;;9.32;64.03
49342;BME280;35210;41.606;-87.602;2024-03-07T00:27:39;99778.97;;;9.35;64.26
49342;BME280;35210;41.606;-87.602;2024-03-07T00:30:09;99788.03;;;9.31;64.29
49342;BME280;35210;41.606;-87.602;2024-03-07T00:32:40;99787.63;;;9.37;64.75
49342;BME280;35210;41.606;-87.602;2024-03-07T00:35:09;99780.84;;;9.33;63.92
49342;BME280;35210;41.606;-87.602;2024-03-07T00:37:37;99792.25;;;9.33;64.24
49342;BME280;35210;41.606;-87.602;2024-03-07T00:40:06;99783.34;;;9.21;64.78
49342;BME280;35210;41.606;-87.602;2024-03-07T00:42:35;99784.50;;;9.17;64.65
49342;BME280;35210;41.606;-87.602;2024-03-07T00:45:04;99784.34;;;9.06;65.74
49342;BME280;35210;41.606;-87.602;2024-03-07T00:47:34;99793.19;;;9.05;66.18
49342;BME280;35210;41.606;-87.602;2024-03-07T00:50:05;99794.25;;;9.03;67.07
49342;BME280;35210;41.606;-87.602;2024-03-07T00:52:35;99806.94;;;9.10;67.40
49342;BME280;35210;41.606;-87.602;2024-03-07T00:55:04;99797.81;;;9.02;67.76
49342;BME280;35210;41.606;-87.602;2024-03-07T00:57:34;99798.47;;;9.05;67.90
49342;BME280;35210;41.606;-87.602;2024-03-07T01:00:02;99807.50;;;9.01;68.44
49342;BME280;35210;41.606;-87.602;2024-03-07T01:02:31;99809.41;;;8.99;69.06
49342;BME280;35210;41.606;-87.602;2024-03-07T01:05:02;99810.69;;;9.06;69.19
49342;BME280;35210;41.606;-87.602;2024-03-07T01:07:35;99817.22;;;9.01;69.30
49342;BME280;35210;41.606;-87.602;2024-03-07T01:10:05;99812.78;;;9.01;69.89
49342;BME280;35210;41.606;-87.602;2024-03-07T01:12:35;99814.38;;;9.04;73.74
49342;BME280;35210;41.606;-87.602;2024-03-07T01:15:04;99813.78;;;9.13;71.31
49342;BME280;35210;41.606;-87.602;2024-03-07T01:17:33;99820.00;;;9.12;71.73
49342;BME280;35210;41.606;-87.602;2024-03-07T01:20:05;99824.41;;;9.11;69.93
49342;BME280;35210;41.606;-87.602;2024-03-07T01:22:35;99820.41;;;9.06;70.46
49342;BME280;35210;41.606;-87.602;2024-03-07T01:25:04;99820.69;;;9.01;70.69
49342;BME280;35210;41.606;-87.602;2024-03-07T01:27:34;99823.53;;;8.98;71.42
49342;BME280;35210;41.606;-87.602;2024-03-07T01:30:02;99823.31;;;9.01;70.55
49342;BME280;35210;41.606;-87.602;2024-03-07T01:32:31;99823.22;;;9.03;70.47
49342;BME280;35210;41.606;-87.602;2024-03-07T01:34:59;99824.66;;;8.94;70.59
49342;BME280;35210;41.606;-87.602;2024-03-07T01:37:29;99830.69;;;8.96;71.23
49342;BME280;35210;41.606;-87.602;2024-03-07T01:39:58;99825.41;;;8.96;71.63
49342;BME280;35210;41.606;-87.602;2024-03-07T01:42:26;99830.97;;;8.92;72.19
49342;BME280;35210;41.606;-87.602;2024-03-07T01:44:54;99832.56;;;8.94;71.70
49342;BME280;35210;41.606;-87.602;2024-03-07T01:47:23;99842.34;;;8.92;72.31
49342;BME280;35210;41.606;-87.602;2024-03-07T01:49:51;99844.41;;;9.01;71.63
49342;BME280;35210;41.606;-87.602;2024-03-07T01:52:20;99841.56;;;9.04;72.31
49342;BME280;35210;41.606;-87.602;2024-03-07T01:54:51;99848.13;;;9.11;72.27
49342;BME280;35210;41.606;-87.602;2024-03-07T01:57:19;99842.03;;;9.11;71.42
49342;BME280;35210;41.606;-87.602;2024-03-07T01:59:48;99839.56;;;9.08;71.52
49342;BME280;35210;41.606;-87.602;2024-03-07T02:02:18;99843.41;;;9.16;70.75
49342;BME280;35210;41.606;-87.602;2024-03-07T02:04:47;99843.22;;;9.19;71.07
49342;BME280;35210;41.606;-87.602;2024-03-07T02:07:17;99844.56;;;9.12;70.59
49342;BME280;35210;41.606;-87.602;2024-03-07T02:09:47;99842.81;;;9.26;70.04
49342;BME280;35210;41.606;-87.602;2024-03-07T02:12:17;99838.16;;;9.16;70.79
49342;BME280;35210;41.606;-87.602;2024-03-07T02:14:46;99839.09;;;9.15;71.18
49342;BME280;35210;41.606;-87.602;2024-03-07T02:17:14;99841.91;;;9.12;71.59
49342;BME280;35210;41.606;-87.602;2024-03-07T02:19:45;99829.25;;;9.05;71.33
49342;BME280;35210;41.606;-87.602;2024-03-07T02:22:16;99837.03;;;9.06;71.71
49342;BME280;35210;41.606;-87.602;2024-03-07T02:24:46;99842.69;;;9.00;71.67
49342;BME280;35210;41.606;-87.602;2024-03-07T02:27:15;99832.66;;;8.93;72.20
49342;BME280;35210;41.606;-87.602;2024-03-07T02:29:44;99834.97;;;8.84;72.82
49342;BME280;35210;41.606;-87.602;2024-03-07T02:32:13;99829.59;;;8.86;73.53
49342;BME280;35210;41.606;-87.602;2024-03-07T02:34:41;99828.00;;;8.83;73.39
49342;BME280;35210;41.606;-87.602;2024-03-07T02:37:10;99826.59;;;8.78;73.75
49342;BME280;35210;41.606;-87.602;2024-03-07T02:39:42;99830.00;;;8.80;73.59
49342;BME280;35210;41.606;-87.602;2024-03-07T02:42:10;99828.69;;;8.73;73.51
49342;BME280;35210;41.606;-87.602;2024-03-07T02:44:39;99826.63;;;8.64;74.47
49342;BME280;35210;41.606;-87.602;2024-03-07T02:47:08;99826.63;;;8.64;74.72
49342;BME280;35210;41.606;-87.602;2024-03-07T02:49:38;99825.88;;;8.62;74.45
49342;BME280;35210;41.606;-87.602;2024-03-07T02:52:06;99829.16;;;8.65;74.55
49342;BME280;35210;41.606;-87.602;2024-03-07T02:54:38;99824.84;;;8.64;75.05
49342;BME280;35210;41.606;-87.602;2024-03-07T02:57:08;99835.56;;;8.61;74.77
49342;BME280;35210;41.606;-87.602;2024-03-07T02:59:37;99831.53;;;8.55;75.43
49342;BME280;35210;41.606;-87.602;2024-03-07T03:02:06;99837.53;;;8.57;75.79
49342;BME280;35210;41.606;-87.602;2024-03-07T03:04:34;99838.28;;;8.60;74.94
49342;BME280;35210;41.606;-87.602;2024-03-07T03:07:02;99842.06;;;8.55;75.99
49342;BME280;35210;41.606;-87.602;2024-03-07T03:09:30;99845.44;;;8.57;76.53
49342;BME280;35210;41.606;-87.602;2024-03-07T03:12:00;99845.16;;;8.62;75.95
49342;BME280;35210;41.606;-87.602;2024-03-07T03:14:30;99848.25;;;8.69;76.06
49342;BME280;35210;41.606;-87.602;2024-03-07T03:16:59;99844.56;;;8.71;75.16
49342;BME280;35210;41.606;-87.602;2024-03-07T03:19:30;99848.63;;;8.77;75.44
49342;BME280;35210;41.606;-87.602;2024-03-07T03:21:58;99853.22;;;8.73;75.35
49342;BME280;35210;41.606;-87.602;2024-03-07T03:24:26;99845.31;;;8.73;75.19
49342;BME280;35210;41.606;-87.602;2024-03-07T03:26:54;99856.69;;;8.74;75.47
49342;BME280;35210;41.606;-87.602;2024-03-07T03:29:23;99856.59;;;8.75;76.00
49342;BME280;35210;41.606;-87.602;2024-03-07T03:31:56;99854.63;;;8.79;75.35
49342;BME280;35210;41.606;-87.602;2024-03-07T03:34:25;99855.00;;;8.87;75.58
49342;BME280;35210;41.606;-87.602;2024-03-07T03:36:54;99856.88;;;8.85;75.39
49342;BME280;35210;41.606;-87.602;2024-03-07T03:39:22;99857.63;;;8.87;75.29
49342;BME280;35210;41.606;-87.602;2024-03-07T03:41:52;99860.34;;;8.85;74.85
49342;BME280;35210;41.606;-87.602;2024-03-07T03:44:20;99854.25;;;8.85;74.90
49342;BME280;35210;41.606;-87.602;2024-03-07T03:46:49;99862.78;;;8.88;74.74
49342;BME280;35210;41.606;-87.602;2024-03-07T03:49:19;99860.78;;;8.92;74.20
49342;BME280;35210;41.606;-87.602;2024-03-07T03:51:47;99857.09;;;8.95;74.37
49342;BME280;35210;41.606;-87.602;2024-03-07T03:54:15;99859.53;;;8.98;74.55
49342;BME280;35210;41.606;-87.602;2024-03-07T03:56:43;99852.19;;;9.03;73.80
49342;BME280;35210;41.606;-87.602;2024-03-07T03:59:11;99847.69;;;9.05;73.54
49342;BME280;35210;41.606;-87.602;2024-03-07T04:01:40;99847.88;;;9.02;73.35
49342;BME280;35210;41.606;-87.602;2024-03-07T04:04:08;99840.81;;;9.02;72.81
49342;BME280;35210;41.606;-87.602;2024-03-07T04:06:38;99844.41;;;9.01;73.09
49342;BME280;35210;41.606;-87.602;2024-03-07T04:09:06;99834.59;;;9.03;71.68
49342;BME280;35210;41.606;-87.602;2024-03-07T04:11:34;99826.50;;;9.06;70.70
49342;BME280;35210;41.606;-87.602;2024-03-07T04:14:03;99814.38;;;9.04;70.67
49342;BME280;35210;41.606;-87.602;2024-03-07T04:16:31;99813.25;;;9.08;69.46
49342;BME280;35210;41.606;-87.602;2024-03-07T04:18:59;99811.84;;;9.02;67.19
49342;BME280;35210;41.606;-87.602;2024-03-07T04:21:27;99804.34;;;8.96;66.68
49342;BME280;35210;41.606;-87.602;2024-03-07T04:23:57;99807.25;;;8.92;66.46
49342;BME280;35210;41.606;-87.602;2024-03-07T04:26:25;99808.72;;;8.83;66.09
49342;BME280;35210;41.606;-87.602;2024-03-07T04:28:53;99807.97;;;8.81;66.08
49342;BME280;35210;41.606;-87.602;2024-03-07T04:31:22;99813.06;;;8.84;65.66
49342;BME280;35210;41.606;-87.602;2024-03-07T04:33:50;99803.75;;;8.78;64.51
49342;BME280;35210;41.606;-87.602;2024-03-07T04:36:18;99808.28;;;8.76;64.49
49342;BME280;35210;41.606;-87.602;2024-03-07T04:38:47;99798.13;;;8.70;64.54
49342;BME280;35210;41.606;-87.602;2024-03-07T04:41:17;99811.28;;;8.70;64.22
49342;BME280;35210;41.606;-87.602;2024-03-07T04:43:45;99805.56;;;8.64;64.55
49342;BME280;35210;41.606;-87.602;2024-03-07T04:46:13;99799.34;;;8.65;64.72
49342;BME280;35210;41.606;-87.602;2024-03-07T04:48:41;99808.19;;;8.64;63.89
49342;BME280;35210;41.606;-87.602;2024-03-07T04:51:10;99797.47;;;8.67;64.43
49342;BME280;35210;41.606;-87.602;2024-03-07T04:53:38;99795.41;;;8.72;63.30
49342;BME280;35210;41.606;-87.602;2024-03-07T04:56:08;99793.13;;;8.80;59.87
49342;BME280;35210;41.606;-87.602;2024-03-07T04:58:38;99797.25;;;8.84;53.31
49342;BME280;35210;41.606;-87.602;2024-03-07T05:01:06;99799.03;;;8.83;51.22
49342;BME280;35210;41.606;-87.602;2024-03-07T05:03:34;99807.22;;;8.79;51.22
49342;BME280;35210;41.606;-87.602;2024-03-07T05:06:03;99809.88;;;8.79;50.04
49342;BME280;35210;41.606;-87.602;2024-03-07T05:08:32;99813.16;;;8.82;49.89
49342;BME280;35210;41.606;-87.602;2024-03-07T05:11:01;99803.25;;;8.86;48.11
49342;BME280;35210;41.606;-87.602;2024-03-07T05:13:30;99818.03;;;8.88;49.37
49342;BME280;35210;41.606;-87.602;2024-03-07T05:16:01;99803.16;;;8.87;49.46
49342;BME280;35210;41.606;-87.602;2024-03-07T05:18:30;99804.31;;;8.83;49.16
49342;BME280;35210;41.606;-87.602;2024-03-07T05:20:58;99795.00;;;8.78;49.06
49342;BME280;35210;41.606;-87.602;2024-03-07T05:23:47;99808.47;;;8.73;50.11
49342;BME280;35210;41.606;-87.602;2024-03-07T05:26:17;99806.78;;;8.72;50.53
49342;BME280;35210;41.606;-87.602;2024-03-07T05:28:45;99796.16;;;8.74;50.84
49342;BME280;35210;41.606;-87.602;2024-03-07T05:31:15;99806.31;;;8.66;51.13
49342;BME280;35210;41.606;-87.602;2024-03-07T05:33:44;99801.06;;;8.66;50.83
49342;BME280;35210;41.606;-87.602;2024-03-07T05:36:12;99808.94;;;8.66;51.76
49342;BME280;35210;41.606;-87.602;2024-03-07T05:38:43;99813.38;;;8.65;51.61
49342;BME280;35210;41.606;-87.602;2024-03-07T05:41:12;99813.47;;;8.64;52.13
49342;BME280;35210;41.606;-87.602;2024-03-07T05:43:40;99818.06;;;8.60;52.40
49342;BME280;35210;41.606;-87.602;2024-03-07T05:46:11;99814.22;;;8.66;51.88
49342;BME280;35210;41.606;-87.602;2024-03-07T05:48:41;99821.66;;;8.59;52.41
49342;BME280;35210;41.606;-87.602;2024-03-07T05:51:12;99818.63;;;8.65;52.37
49342;BME280;35210;41.606;-87.602;2024-03-07T05:53:40;99819.94;;;8.72;52.37
49342;BME280;35210;41.606;-87.602;2024-03-07T05:56:08;99829.53;;;8.73;52.74
49342;BME280;35210;41.606;-87.602;2024-03-07T05:58:36;99826.44;;;8.67;53.22
49342;BME280;35210;41.606;-87.602;2024-03-07T06:01:05;99833.50;;;8.66;53.77
49342;BME280;35210;41.606;-87.602;2024-03-07T06:03:35;99834.13;;;8.70;53.33
49342;BME280;35210;41.606;-87.602;2024-03-07T06:06:05;99830.94;;;8.65;53.37
49342;BME280;35210;41.606;-87.602;2024-03-07T06:08:37;99830.94;;;8.65;54.59
49342;BME280;35210;41.606;-87.602;2024-03-07T06:11:08;99818.34;;;8.70;54.24
49342;BME280;35210;41.606;-87.602;2024-03-07T06:13:36;99816.47;;;8.72;53.74
49342;BME280;35210;41.606;-87.602;2024-03-07T06:16:05;99816.75;;;8.67;54.07
49342;BME280;35210;41.606;-87.602;2024-03-07T06:18:35;99823.25;;;8.62;53.62
49342;BME280;35210;41.606;-87.602;2024-03-07T06:21:05;99824.47;;;8.56;54.16
49342;BME280;35210;41.606;-87.602;2024-03-07T06:23:35;99822.41;;;8.61;53.80
49342;BME280;35210;41.606;-87.602;2024-03-07T06:26:03;99818.72;;;8.64;53.78
49342;BME280;35210;41.606;-87.602;2024-03-07T06:28:39;99825.69;;;8.65;52.22
49342;BME280;35210;41.606;-87.602;2024-03-07T06:31:07;99812.22;;;8.69;51.36
49342;BME280;35210;41.606;-87.602;2024-03-07T06:33:35;99821.34;;;8.64;50.15
49342;BME280;35210;41.606;-87.602;2024-03-07T06:36:06;99811.97;;;8.60;50.34
49342;BME280;35210;41.606;-87.602;2024-03-07T06:38:35;99813.19;;;8.54;51.04
49342;BME280;35210;41.606;-87.602;2024-03-07T06:41:03;99817.16;;;8.47;51.52
49342;BME280;35210;41.606;-87.602;2024-03-07T06:43:32;99818.75;;;8.49;50.96
49342;BME280;35210;41.606;-87.602;2024-03-07T06:46:00;99811.59;;;8.51;49.30
49342;BME280;35210;41.606;-87.602;2024-03-07T06:48:29;99819.97;;;8.44;50.36
49342;BME280;35210;41.606;-87.602;2024-03-07T06:50:57;99816.50;;;8.43;50.19
49342;BME280;35210;41.606;-87.602;2024-03-07T06:53:27;99817.53;;;8.41;49.94
49342;BME280;35210;41.606;-87.602;2024-03-07T06:55:56;99818.91;;;8.32;50.37
49342;BME280;35210;41.606;-87.602;2024-03-07T06:58:24;99822.66;;;8.28;50.55
49342;BME280;35210;41.606;-87.602;2024-03-07T07:00:53;99822.84;;;8.25;50.37
49342;BME280;35210;41.606;-87.602;2024-03-07T07:03:21;99819.47;;;8.23;50.42
49342;BME280;35210;41.606;-87.602;2024-03-07T07:05:50;99814.22;;;8.23;51.95
49342;BME280;35210;41.606;-87.602;2024-03-07T07:08:18;99810.91;;;8.19;51.27
49342;BME280;35210;41.606;-87.602;2024-03-07T07:10:48;99815.44;;;8.17;52.34
49342;BME280;35210;41.606;-87.602;2024-03-07T07:13:16;99819.97;;;8.15;52.09
49342;BME280;35210;41.606;-87.602;2024-03-07T07:15:44;99820.91;;;8.14;53.05
49342;BME280;35210;41.606;-87.602;2024-03-07T07:18:12;99830.41;;;8.17;52.91
49342;BME280;35210;41.606;-87.602;2024-03-07T07:20:41;99816.50;;;8.15;53.43
49342;BME280;35210;41.606;-87.602;2024-03-07T07:23:09;99819.22;;;8.13;53.83
49342;BME280;35210;41.606;-87.602;2024-03-07T07:25:39;99819.31;;;8.12;54.11
49342;BME280;35210;41.606;-87.602;2024-03-07T07:28:09;99818.00;;;8.05;54.30
49342;BME280;35210;41.606;-87.602;2024-03-07T07:30:37;99820.63;;;8.05;54.61
49342;BME280;35210;41.606;-87.602;2024-03-07T07:33:05;99811.97;;;8.03;55.56
49342;BME280;35210;41.606;-87.602;2024-03-07T07:35:34;99810.09;;;8.05;55.87
49342;BME280;35210;41.606;-87.602;2024-03-07T07:38:02;99815.53;;;8.02;55.59
49342;BME280;35210;41.606;-87.602;2024-03-07T07:40:33;99824.47;;;7.99;55.64
49342;BME280;35210;41.606;-87.602;2024-03-07T07:43:02;99829.63;;;8.01;56.57
49342;BME280;35210;41.606;-87.602;2024-03-07T07:45:31;99820.97;;;7.99;56.46
49342;BME280;35210;41.606;-87.602;2024-03-07T07:48:02;99831.22;;;8.03;56.14
49342;BME280;35210;41.606;-87.602;2024-03-07T07:50:30;99828.69;;;8.02;56.72
49342;BME280;35210;41.606;-87.602;2024-03-07T07:53:00;99832.66;;;8.09;57.12
49342;BME280;35210;41.606;-87.602;2024-03-07T07:55:33;99829.06;;;8.10;57.04
49342;BME280;35210;41.606;-87.602;2024-03-07T07:58:01;99828.97;;;8.11;57.85
49342;BME280;35210;41.606;-87.602;2024-03-07T08:00:32;99828.41;;;8.06;57.39
49342;BME280;35210;41.606;-87.602;2024-03-07T08:03:01;99828.59;;;8.03;58.53
49342;BME280;35210;41.606;-87.602;2024-03-07T08:05:31;99824.47;;;7.99;58.53
49342;BME280;35210;41.606;-87.602;2024-03-07T08:08:01;99827.19;;;7.98;58.88
49342;BME280;35210;41.606;-87.602;2024-03-07T08:10:30;99810.09;;;8.05;59.36
49342;BME280;35210;41.606;-87.602;2024-03-07T08:13:00;99808.22;;;8.07;59.18
49342;BME280;35210;41.606;-87.602;2024-03-07T08:15:31;99804.44;;;7.97;60.14
49342;BME280;35210;41.606;-87.602;2024-03-07T08:17:59;99795.91;;;7.93;61.27
49342;BME280;35210;41.606;-87.602;2024-03-07T08:20:28;99804.06;;;7.88;61.80
49342;BME280;35210;41.606;-87.602;2024-03-07T08:22:56;99791.28;;;7.82;62.33
49342;BME280;35210;41.606;-87.602;2024-03-07T08:25:26;99784.72;;;7.75;63.38
49342;BME280;35210;41.606;-87.602;2024-03-07T08:27:56;99783.38;;;7.68;63.75
49342;BME280;35210;41.606;-87.602;2024-03-07T08:30:25;99795.59;;;7.69;64.32
49342;BME280;35210;41.606;-87.602;2024-03-07T08:32:57;99799.41;;;7.64;64.91
49342;BME280;35210;41.606;-87.602;2024-03-07T08:35:28;99798.41;;;7.66;65.42
49342;BME280;35210;41.606;-87.602;2024-03-07T08:37:56;99795.66;;;7.68;65.13
49342;BME280;35210;41.606;-87.602;2024-03-07T08:40:26;99795.66;;;7.68;65.85
49342;BME280;35210;41.606;-87.602;2024-03-07T08:42:57;99797.28;;;7.70;66.17
49342;BME280;35210;41.606;-87.602;2024-03-07T08:45:26;99803.81;;;7.63;66.44
49342;BME280;35210;41.606;-87.602;2024-03-07T08:47:56;99800.44;;;7.61;66.43
49342;BME280;35210;41.606;-87.602;2024-03-07T08:50:25;99804.41;;;7.68;66.35
49342;BME280;35210;41.606;-87.602;2024-03-07T08:52:54;99805.16;;;7.70;66.93
49342;BME280;35210;41.606;-87.602;2024-03-07T08:55:24;99805.16;;;7.70;66.91
49342;BME280;35210;41.606;-87.602;2024-03-07T08:57:52;99806.19;;;7.68;67.28
49342;BME280;35210;41.606;-87.602;2024-03-07T09:00:21;99812.97;;;7.72;67.38
49342;BME280;35210;41.606;-87.602;2024-03-07T09:02:53;99803.66;;;7.66;68.29
49342;BME280;35210;41.606;-87.602;2024-03-07T09:05:26;99801.41;;;7.74;68.25
49342;BME280;35210;41.606;-87.602;2024-03-07T09:07:55;99792.41;;;7.78;68.70
49342;BME280;35210;41.606;-87.602;2024-03-07T09:10:23;99784.88;;;7.72;69.42
49342;BME280;35210;41.606;-87.602;2024-03-07T09:12:52;99784.78;;;7.74;69.95
49342;BME280;35210;41.606;-87.602;2024-03-07T09:15:20;99791.56;;;7.78;70.37
49342;BME280;35210;41.606;-87.602;2024-03-07T09:17:49;99799.63;;;7.75;69.60
49342;BME280;35210;41.606;-87.602;2024-03-07T09:20:17;99803.09;;;7.75;69.85
49342;BME280;35210;41.606;-87.602;2024-03-07T09:22:48;99794.84;;;7.81;69.71
49342;BME280;35210;41.606;-87.602;2024-03-07T09:25:17;99781.88;;;7.78;70.30
49342;BME280;35210;41.606;-87.602;2024-03-07T09:27:45;99778.31;;;7.79;70.09
49342;BME280;35210;41.606;-87.602;2024-03-07T09:30:13;99776.53;;;7.80;70.47
49342;BME280;35210;41.606;-87.602;2024-03-07T09:32:45;99768.66;;;7.80;70.76
49342;BME280;35210;41.606;-87.602;2024-03-07T09:35:13;99763.94;;;7.71;70.71
49342;BME280;35210;41.606;-87.602;2024-03-07T09:37:43;99764.97;;;7.68;71.36
49342;BME280;35210;41.606;-87.602;2024-03-07T09:40:13;99777.00;;;7.72;71.96
49342;BME280;35210;41.606;-87.602;2024-03-07T09:42:44;99775.50;;;7.82;72.01
49342;BME280;35210;41.606;-87.602;2024-03-07T09:45:15;99780.88;;;7.81;72.64
49342;BME280;35210;41.606;-87.602;2024-03-07T09:47:45;99776.44;;;7.81;72.04
49342;BME280;35210;41.606;-87.602;2024-03-07T09:50:16;99775.16;;;7.88;71.95
49342;BME280;35210;41.606;-87.602;2024-03-07T09:52:47;99777.78;;;7.88;71.91
49342;BME280;35210;41.606;-87.602;2024-03-07T09:55:19;99777.59;;;7.91;72.12
49342;BME280;35210;41.606;-87.602;2024-03-07T09:57:49;99771.00;;;7.84;73.16
49342;BME280;35210;41.606;-87.602;2024-03-07T10:00:19;99764.34;;;7.93;73.19
49342;BME280;35210;41.606;-87.602;2024-03-07T10:02:57;99765.94;;;7.96;73.26
49342;BME280;35210;41.606;-87.602;2024-03-07T10:05:27;99765.28;;;7.92;72.52
49342;BME280;35210;41.606;-87.602;2024-03-07T10:07:55;99777.78;;;7.88;73.58
49342;BME280;35210;41.606;-87.602;2024-03-07T10:10:25;99780.22;;;7.91;73.05
49342;BME280;35210;41.606;-87.602;2024-03-07T10:12:54;99789.63;;;7.96;73.10
49342;BME280;35210;41.606;-87.602;2024-03-07T10:15:28;99789.63;;;7.96;73.02
49342;BME280;35210;41.606;-87.602;2024-03-07T10:17:56;99796.38;;;8.00;73.02
49342;BME280;35210;41.606;-87.602;2024-03-07T10:20:24;99803.88;;;7.91;73.23
49342;BME280;35210;41.606;-87.602;2024-03-07T10:22:54;99810.25;;;7.87;74.01
49342;BME280;35210;41.606;-87.602;2024-03-07T10:25:22;99790.16;;;7.86;74.68
49342;BME280;35210;41.606;-87.602;2024-03-07T10:27:54;99794.13;;;7.94;75.14
49342;BME280;35210;41.606;-87.602;2024-03-07T10:30:23;99792.34;;;7.94;74.21
49342;BME280;35210;41.606;-87.602;2024-03-07T10:32:55;99798.25;;;7.98;74.45
49342;BME280;35210;41.606;-87.602;2024-03-07T10:35:24;99805.13;;;8.00;73.96
49342;BME280;35210;41.606;-87.602;2024-03-07T10:37:53;99822.84;;;7.97;73.05
49342;BME280;35210;41.606;-87.602;2024-03-07T10:40:21;99821.56;;;8.04;72.73
49342;BME280;35210;41.606;-87.602;2024-03-07T10:42:58;99820.25;;;8.11;72.05
49342;BME280;35210;41.606;-87.602;2024-03-07T10:45:29;99818.63;;;7.94;72.08
49342;BME280;35210;41.606;-87.602;2024-03-07T10:47:59;99828.59;;;8.03;72.15
49342;BME280;35210;41.606;-87.602;2024-03-07T10:50:45;99838.28;;;8.03;72.31
49342;BME280;35210;41.606;-87.602;2024-03-07T10:53:20;99839.59;;;8.10;71.82
49342;BME280;35210;41.606;-87.602;2024-03-07T10:56:18;99829.63;;;8.01;70.89
49342;BME280;35210;41.606;-87.602;2024-03-07T10:58:58;99823.88;;;7.94;72.09
49342;BME280;35210;41.606;-87.602;2024-03-07T11:01:31;99836.19;;;7.94;72.48
49342;BME280;35210;41.606;-87.602;2024-03-07T11:04:01;99834.31;;;7.96;72.45
49342;BME280;35210;41.606;-87.602;2024-03-07T11:06:32;99822.00;;;7.96;73.10
49342;BME280;35210;41.606;-87.602;2024-03-07T11:09:03;99818.75;;;8.07;72.00
49342;BME280;35210;41.606;-87.602;2024-03-07T11:11:38;99805.56;;;8.21;70.61
49342;BME280;35210;41.606;-87.602;2024-03-07T11:14:12;99809.78;;;8.23;70.12
49342;BME280;35210;41.606;-87.602;2024-03-07T11:16:42;99814.03;;;8.26;70.09
49342;BME280;35210;41.606;-87.602;2024-03-07T11:19:25;99815.53;;;8.30;69.74
49342;BME280;35210;41.606;-87.602;2024-03-07T11:21:54;99815.72;;;8.27;69.61
49342;BME280;35210;41.606;-87.602;2024-03-07T11:24:25;99816.75;;;8.24;70.55
49342;BME280;35210;41.606;-87.602;2024-03-07T11:26:56;99825.84;;;8.19;70.99
49342;BME280;35210;41.606;-87.602;2024-03-07T11:29:53;99828.78;;;8.29;71.14
49342;BME280;35210;41.606;-87.602;2024-03-07T11:32:22;99829.63;;;8.29;70.54
49342;BME280;35210;41.606;-87.602;2024-03-07T11:34:53;99828.59;;;8.32;70.35
49342;BME280;35210;41.606;-87.602;2024-03-07T11:37:39;99821.09;;;8.40;69.75
49342;BME280;35210;41.606;-87.602;2024-03-07T11:40:12;99801.00;;;8.39;69.87
49342;BME280;35210;41.606;-87.602;2024-03-07T11:42:47;99787.84;;;8.39;70.06
49342;BME280;35210;41.606;-87.602;2024-03-07T11:45:18;99776.66;;;8.35;70.02
49342;BME280;35210;41.606;-87.602;2024-03-07T11:47:53;99783.84;;;8.32;69.44
49342;BME280;35210;41.606;-87.602;2024-03-07T11:50:26;99782.63;;;8.23;70.50
49342;BME280;35210;41.606;-87.602;2024-03-07T11:52:55;99783.88;;;8.17;70.81
49342;BME280;35210;41.606;-87.602;2024-03-07T11:55:24;99785.78;;;8.15;70.95
49342;BME280;35210;41.606;-87.602;2024-03-07T11:57:54;99786.16;;;8.09;71.25
49342;BME280;35210;41.606;-87.602;2024-03-07T12:00:25;99804.09;;;8.03;71.54
49342;BME280;35210;41.606;-87.602;2024-03-07T12:03:01;99813.28;;;7.96;72.15
49342;BME280;35210;41.606;-87.602;2024-03-07T12:05:33;99819.28;;;7.83;72.58
49342;BME280;35210;41.606;-87.602;2024-03-07T12:08:01;99819.38;;;7.82;72.82
49342;BME280;35210;41.606;-87.602;2024-03-07T12:10:31;99809.31;;;7.88;73.11
49342;BME280;35210;41.606;-87.602;2024-03-07T12:13:00;99805.38;;;7.96;73.02
49342;BME280;35210;41.606;-87.602;2024-03-07T12:15:30;99801.16;;;7.93;72.91
49342;BME280;35210;41.606;-87.602;2024-03-07T12:18:01;99794.50;;;7.87;73.49
49342;BME280;35210;41.606;-87.602;2024-03-07T12:20:36;99795.88;;;7.79;74.03
49342;BME280;35210;41.606;-87.602;2024-03-07T12:23:05;99811.47;;;7.82;73.62
49342;BME280;35210;41.606;-87.602;2024-03-07T12:25:35;99811.00;;;7.89;73.29
49342;BME280;35210;41.606;-87.602;2024-03-07T12:28:05;99816.09;;;7.93;72.97
49342;BME280;35210;41.606;-87.602;2024-03-07T12:30:51;99816.25;;;7.75;73.59
49342;BME280;35210;41.606;-87.602;2024-03-07T12:33:20;99821.91;;;7.83;73.31
49342;BME280;35210;41.606;-87.602;2024-03-07T12:35:52;99819.84;;;7.88;73.22
49342;BME280;35210;41.606;-87.602;2024-03-07T12:38:26;99827.88;;;7.71;74.40
49342;BME280;35210;41.606;-87.602;2024-03-07T12:41:05;99843.56;;;7.73;74.27
49342;BME280;35210;41.606;-87.602;2024-03-07T12:43:35;99857.19;;;7.79;75.27
49342;BME280;35210;41.606;-87.602;2024-03-07T12:46:06;99856.63;;;7.74;75.06
49342;BME280;35210;41.606;-87.602;2024-03-07T12:48:35;99851.75;;;7.82;75.28
49342;BME280;35210;41.606;-87.602;2024-03-07T12:51:05;99855.13;;;7.84;73.75
49342;BME280;35210;41.606;-87.602;2024-03-07T12:53:33;99854.94;;;7.73;75.22
49342;BME280;35210;41.606;-87.602;2024-03-07T12:56:01;99844.53;;;7.86;75.33
49342;BME280;35210;41.606;-87.602;2024-03-07T12:58:30;99860.22;;;7.87;75.26
49342;BME280;35210;41.606;-87.602;2024-03-07T13:00:59;99862.50;;;7.94;75.11
49342;BME280;35210;41.606;-87.602;2024-03-07T13:03:29;99856.47;;;7.91;74.59